KBIF/BIF METAR and TAF weather

Enter ICAO airport designator
Station Type Date Time Source
KBIF METAR 2024/05/28 19:55 UTC NOAA

KBIF 281955Z VRB06KT 7SM FEW180 36/M05 A3005 RMK AO2A SLP057 ALSTG/SLP ESTMD WND DATA ESTMD T03581050 $


Station Type Date Time Source
KBIF Decoded METAR 2024/05/28 19:55 UTC NOAA

Biggs Army Air Field / Ft. Bliss, TX, United States (KBIF) 31-51N 106-23W
May 28, 2024 - 03:55 PM EDT / 2024.05.28 1955 UTC
Wind: Variable at 7 MPH (6 KT):0
Visibility: 7 mile(s):0
Sky conditions: mostly clear
Temperature: 96.4 F (35.8 C)
Dew Point: 23.0 F (-5.0 C)
Relative Humidity: 7%
Pressure (altimeter): 30.05 in. Hg (1017 hPa)
ob: KBIF 281955Z VRB06KT 7SM FEW180 36/M05 A3005 RMK AO2A SLP057 ALSTG/SLP ESTMD WND DATA ESTMD T03581050
cycle: 20

Station Type Date Time Source
KBIF TAF 2024/05/28 19:01 UTC NOAA